Redondo, Valles Caldera, New Mexico Weather observations

Data are for 10 minute period ending at time listed.
 Day   Time   Solar   Ave.   Ave.  Ave.  Vector  Max.   Baro.   Total    
  of    of     Rad.   Air    Rel.  Wind   Wind   Wind  Press.  Precip.   
Year   Day            Temp.  Hum.  Speed  Dir.   Gust                    
2017   (MST)  Kw/m2    F      %     mph   deg.    mph    mb.     in.     
-------------------------------------------------------------------------
 141    8:30   0.68   44.3    37    3.0   142     6.6   692.5    0.00 
 141    8:40   0.71   44.2    37    3.8   178    10.2   692.5    0.00 
 141    8:50   0.74   44.5    37    4.1   161     9.6   692.5    0.00 
 141    9:00   0.77   44.5    36    4.6   168     9.0   692.5    0.00 
 141    9:10   0.80   44.7    36    5.1   141    10.8   692.5    0.00 
 141    9:20   0.82   45.2    37    4.3   150     9.0   692.6    0.00 
 141    9:30   0.85   44.5    39    4.5   182    10.2   692.7    0.00 
 141    9:40   0.87   46.0    39    3.6   207     8.4   692.7    0.00 
 141    9:50   0.90   46.9    38    4.5   196     8.4   692.7    0.00 
 141   10:00   0.92   46.8    39    4.2   218    11.3   692.7    0.00 
 141   10:10   0.94   47.1    37    5.2   207    10.8   692.6    0.00 
 141   10:20   0.96   46.9    37    5.1   185    13.1   692.7    0.00 
 141   10:30   0.98   47.0    38    4.5   233     9.6   692.7    0.00 
 141   10:40   1.00   47.5    36    5.2   208    11.9   692.6    0.00 
 141   10:50   1.01   47.3    35    4.5   195    11.3   692.6    0.00 
 141   11:00   1.02   47.2    36    3.5   133     9.6   692.5    0.00 
 141   11:10   0.95   47.6    36    4.1   186    10.8   692.4    0.00 
 141   11:20   0.96   47.8    36    4.3   164     9.6   692.4    0.00 
 141   11:30   1.05   47.8    33    4.9   170    11.9   692.4    0.00 
 141   11:40   1.05   48.7    34    4.7   151    11.3   692.3    0.00 
 141   11:50   1.08   48.7    33    2.9   159     9.0   692.3    0.00 
 141   12:00   1.06   50.6    30    4.6   236    11.3   692.2    0.00 
 141   12:10   1.09   49.5    33    4.6   174    11.9   692.2    0.00 
 141   12:20   1.11   49.9    29    4.9   225    11.3   692.2    0.00 
 141   12:30   1.06   50.8    28    4.1   240    12.5   692.1    0.00 
 141   12:40   1.07   50.8    28    4.3   186     8.4   692.1    0.00 
 141   12:50   1.05   50.3    29    6.1   198    11.3   692.0    0.00 
 141   13:00   1.05   50.4    29    4.2   177     9.6   692.0    0.00 
 141   13:10   0.66   51.9    28    4.1   231     9.0   691.9    0.00 
 141   13:20   0.74   49.7    30    4.6   254    10.2   691.9    0.00 
 141   13:30   1.01   52.3    28    5.9   229    12.5   691.9    0.00 
 141   13:40   1.01   52.1    26    5.5   170    10.2   691.9    0.00 
 141   13:50   0.81   52.4    27    4.0   248     8.4   691.8    0.00 
 141   14:00   0.85   53.9    26    4.3   236    10.2   691.8    0.00 
 141   14:10   0.95   53.6    24    5.3   198    10.2   691.6    0.00 
 141   14:20   0.93   52.9    24    5.8   174    14.3   691.6    0.00 
 141   14:30   0.91   54.8    24    4.4   246     7.8   691.5    0.00 
 141   14:40   0.89   54.3    22    5.1   227    11.3   691.5    0.00 
 141   14:50   0.86   53.0    20    6.1   178     9.6   691.5    0.00 
 141   15:00   0.84   53.2    22    4.9   222    13.1   691.5    0.00 
 141   15:10   0.81   54.8    22    5.2   250    10.2   691.3    0.00 
 141   15:20   0.78   54.3    22    6.2   202    13.7   691.3    0.00 
 141   15:30   0.75   54.1    23    5.9   237    13.1   691.3    0.00 
 141   15:40   0.72   53.6    22    4.7   190    14.3   691.3    0.00 
 141   15:50   0.69   53.2    24    6.1   209    13.7   691.3    0.00 
 141   16:00   0.68   55.4    22    4.9   248    10.8   691.3    0.00 
 141   16:10   0.60   56.9    22    5.2   261     9.0   691.3    0.00 
 141   16:20   0.61   56.0    22    5.9   245    11.9   691.3    0.00 
 141   16:30   0.53   55.4    23    4.2   233     9.6   691.3    0.00 
 141   16:40   0.52   55.5    22    5.3   252    11.3   691.3    0.00 
 141   16:50   0.49   54.1    22    5.0   237     8.4   691.3    0.00 
 141   17:00   0.45   55.7    22    5.2   257    10.8   691.3    0.00 
 141   17:10   0.41   55.3    21    4.3   235    10.8   691.3    0.00 
 141   17:20   0.37   53.3    22    5.0   220    11.3   691.3    0.00 
 141   17:30   0.33   54.5    23    4.1   243     9.0   691.3    0.00 
 141   17:40   0.30   53.3    22    4.7   221    10.2   691.4    0.00 
 141   17:50   0.12   52.6    22    5.0   226     8.4   691.4    0.00 
 141   18:00   0.23   52.7    23    5.0   244    12.5   691.4    0.00 
 141   18:10   0.19   51.6    23    6.0   244    13.1   691.4    0.00 
 141   18:20   0.15   51.1    24    4.6   242    10.8   691.5    0.00 
 141   18:30   0.11   50.1    24    5.7   248    11.9   691.5    0.00 
 141   18:40   0.06   48.1    26    5.0   239    10.8   691.6    0.00 
 141   18:50   0.04   46.8    27    4.6   238    12.5   691.7    0.00 
 141   19:00   0.01   45.4    29    4.5   244    10.2   691.7    0.00 
 141   19:10   0.01   44.3    30    3.7   245     7.8   691.8    0.00 
 141   19:20   0.00   43.3    30    3.4   243     9.0   691.8    0.00 
 141   19:30   0.00   42.9    29    4.4   241    10.2   691.8    0.00 
 141   19:40   0.00   42.6    28    4.7   241    12.5   691.8    0.00 
 141   19:50   0.00   42.1    29    3.3   241     7.8   691.8    0.00 
 141   20:00   0.00   41.4    30    3.4   242    10.2   691.9    0.00 
 141   20:10   0.00   41.1    30    4.4   247     9.6   691.9    0.00 
 141   20:20   0.00   41.3    30    4.5   240    13.7   691.9    0.00 
 141   20:30   0.00   41.1    30    5.1   247    10.2   692.0    0.00 
 141   20:40   0.00   41.3    30    5.2   248     9.6   692.1    0.00 
 141   20:50   0.00   41.1    30    5.6   248    13.7   692.2    0.00 
 141   21:00   0.00   41.0    32    5.5   247    11.3   692.2    0.00 
 141   21:10   0.00   41.0    33    6.9   247    16.1   692.2    0.00 
 141   21:20   0.00   41.0    33    6.2   245    11.9   692.2    0.00 
 141   21:30   0.00   40.6    34    6.5   244    13.1   692.2    0.00 
 141   21:40   0.00   40.4    34    6.4   247    13.7   692.2    0.00 
 141   21:50   0.00   40.4    34    6.0   245    14.9   692.3    0.00 
 141   22:00   0.00   40.0    35    5.8   242    14.3   692.3    0.00 
 141   22:10   0.00   39.7    36    5.5   243    14.3   692.3    0.00 
 141   22:20   0.00   38.9    38    4.6   245    10.2   692.3    0.00 
 141   22:30   0.00   39.0    39    5.5   250    10.2   692.3    0.00 
 141   22:40   0.00   39.6    38    5.7   246    12.5   692.3    0.00 
 141   22:50   0.00   39.8    36    6.0   249    10.8   692.4    0.00 
 141   23:00   0.00   40.1    33    6.5   247    13.7   692.3    0.00 
 141   23:10   0.00   40.2    35    6.3   243    12.5   692.3    0.00 
 141   23:20   0.00   40.0    38    6.3   247    15.5   692.2    0.00 
 141   23:30   0.00   39.5    40    5.2   246    12.5   692.2    0.00 
 141   23:40   0.00   39.4    40    5.4   252    11.9   692.2    0.00 
 141   23:50   0.00   39.0    40    5.1   243    13.1   692.3    0.00 
 142    0:00   0.00   38.8    42    4.9   247    11.3   692.3    0.00 
 142    0:10   0.00   38.6    43    4.8   242    10.8   692.3    0.00 
 142    0:20   0.00   38.5    45    4.2   242     9.6   692.3    0.00 
 142    0:30   0.00   38.5    48    5.7   249    13.1   692.3    0.00 
 142    0:40   0.00   38.6    49    5.8   252    11.3   692.2    0.00 
 142    0:50   0.00   38.2    50    5.1   245    11.9   692.3    0.00 
 142    1:00   0.00   38.1    50    4.9   242    10.8   692.3    0.00 
 142    1:10   0.00   38.2    50    4.7   243     9.6   692.2    0.00 
 142    1:20   0.00   38.2    48    4.6   240    11.9   692.1    0.00 
 142    1:30   0.00   38.4    48    5.6   244    11.9   692.1    0.00 
 142    1:40   0.00   38.7    48    5.0   241    11.3   692.0    0.00 
 142    1:50   0.00   38.6    48    4.9   245    12.5   692.0    0.00 
 142    2:00   0.00   38.5    50    4.7   245    10.8   691.9    0.00 
 142    2:10   0.00   38.3    51    3.7   246     7.8   691.8    0.00 
 142    2:20   0.00   37.7    53    3.7   248     8.4   691.7    0.00 
 142    2:30   0.00   37.6    54    3.9   244     7.8   691.6    0.00 
 142    2:40   0.00   37.5    54    3.9   239    10.2   691.6    0.00 
 142    2:50   0.00   37.3    55    4.1   244     9.0   691.5    0.00 
 142    3:00   0.00   37.3    55    5.4   248    14.9   691.5    0.00 
 142    3:10   0.00   37.1    56    5.4   249    10.8   691.5    0.00 
 142    3:20   0.00   37.2    57    5.3   247    12.5   691.3    0.00 
 142    3:30   0.00   37.2    58    5.3   247    10.2   691.3    0.00 
 142    3:40   0.00   37.2    57    4.8   248    10.8   691.3    0.00 
 142    3:50   0.00   36.5    59    3.6   243     8.4   691.3    0.00 
 142    4:00   0.00   36.1    60    4.5   242    10.2   691.3    0.00 
 142    4:10   0.00   35.8    62    3.8   242     8.4   691.2    0.00 
 142    4:20   0.00   35.3    64    3.8   245     7.8   691.1    0.00 
 142    4:30   0.00   34.6    66    3.8   242     7.2   691.0    0.00 
 142    4:40   0.00   34.7    65    4.1   246     9.0   691.0    0.00 
 142    4:50   0.00   34.6    65    3.2   242     7.2   691.0    0.00 
 142    5:00   0.00   35.0    64    4.2   244     9.6   691.0    0.00 
 142    5:10   0.01   34.9    64    4.2   242     9.0   691.0    0.00 
 142    5:20   0.01   35.0    64    4.2   245     7.8   691.0    0.00 
 142    5:30   0.01   34.6    65    4.0   249     8.4   691.0    0.00 
 142    5:40   0.01   34.9    64    4.6   245     9.6   691.0    0.00 
 142    5:50   0.02   35.4    62    5.0   247    15.5   691.0    0.00 
 142    6:00   0.02   35.7    62    4.7   245    13.1   691.0    0.00 
 142    6:10   0.04   35.8    61    4.3   241     9.0   691.1    0.00 
 142    6:20   0.17   36.8    60    4.2   245     7.8   691.2    0.00 
 142    6:30   0.17   39.2    55    4.8   247     9.6   691.2    0.00 
 142    6:40   0.22   39.4    56    4.8   247    10.8   691.4    0.00 
 142    6:50   0.26   40.7    53    5.0   242     9.6   691.5    0.00 
 142    7:00   0.35   41.7    52    5.2   251     9.6   691.5    0.00 
 142    7:10   0.40   42.3    52    5.2   245    10.8   691.5    0.00 
 142    7:20   0.42   43.2    50    5.3   241    11.9   691.5    0.00 
 142    7:30   0.48   42.8    51    5.6   241    11.3   691.5    0.00 
 142    7:40   0.52   44.5    49    5.2   248    11.3   691.6    0.00 
 142    7:50   0.55   44.0    49    6.1   240    11.3   691.5    0.00 
 142    8:00   0.58   44.1    49    5.7   240    11.3   691.5    0.00 
 142    8:10   0.61   43.9    50    5.9   236    12.5   691.5    0.00 
 142    8:20   0.65   44.1    50    6.0   235    12.5   691.5    0.00 

Return to Redondo, Valles Caldera graphs page.


Western Regional Climate Center,wrcc@dri.edu